sensor_id;sensor_type;location;lat;lon;timestamp;temperature;humidity
22073;DHT22;11202;50.916;4.698;2023-01-16T00:01:27;5.40;99.90
22073;DHT22;11202;50.916;4.698;2023-01-16T00:03:54;5.40;99.90
22073;DHT22;11202;50.916;4.698;2023-01-16T00:06:20;5.40;99.90
22073;DHT22;11202;50.916;4.698;2023-01-16T00:08:47;5.30;99.90
22073;DHT22;11202;50.916;4.698;2023-01-16T00:11:14;5.30;99.90
22073;DHT22;11202;50.916;4.698;2023-01-16T00:13:39;5.30;99.90
22073;DHT22;11202;50.916;4.698;2023-01-16T00:16:06;5.40;99.90
22073;DHT22;11202;50.916;4.698;2023-01-16T00:18:31;5.40;99.90
22073;DHT22;11202;50.916;4.698;2023-01-16T00:20:57;5.50;99.90
22073;DHT22;11202;50.916;4.698;2023-01-16T00:23:23;5.40;99.90
22073;DHT22;11202;50.916;4.698;2023-01-16T00:25:49;5.50;99.90
22073;DHT22;11202;50.916;4.698;2023-01-16T00:28:15;5.50;99.90
22073;DHT22;11202;50.916;4.698;2023-01-16T00:30:41;5.40;99.90
22073;DHT22;11202;50.916;4.698;2023-01-16T00:33:08;5.30;99.90
22073;DHT22;11202;50.916;4.698;2023-01-16T00:35:34;5.40;99.90
22073;DHT22;11202;50.916;4.698;2023-01-16T00:38:01;5.40;99.90
22073;DHT22;11202;50.916;4.698;2023-01-16T00:40:27;5.40;99.90
22073;DHT22;11202;50.916;4.698;2023-01-16T00:42:53;5.40;99.90
22073;DHT22;11202;50.916;4.698;2023-01-16T00:45:19;5.40;99.90
22073;DHT22;11202;50.916;4.698;2023-01-16T00:47:44;5.40;99.90
22073;DHT22;11202;50.916;4.698;2023-01-16T00:50:11;5.40;99.90
22073;DHT22;11202;50.916;4.698;2023-01-16T00:52:37;5.40;99.90
22073;DHT22;11202;50.916;4.698;2023-01-16T00:55:04;5.40;99.90
22073;DHT22;11202;50.916;4.698;2023-01-16T00:57:30;5.40;99.90
22073;DHT22;11202;50.916;4.698;2023-01-16T00:59:56;5.30;99.90
22073;DHT22;11202;50.916;4.698;2023-01-16T01:02:21;5.30;99.90
22073;DHT22;11202;50.916;4.698;2023-01-16T01:04:49;5.30;99.90
22073;DHT22;11202;50.916;4.698;2023-01-16T01:07:18;5.30;99.90
22073;DHT22;11202;50.916;4.698;2023-01-16T01:09:43;5.30;99.90
22073;DHT22;11202;50.916;4.698;2023-01-16T01:12:10;5.40;99.90
22073;DHT22;11202;50.916;4.698;2023-01-16T01:14:36;5.30;99.90
22073;DHT22;11202;50.916;4.698;2023-01-16T01:17:02;5.30;99.90
22073;DHT22;11202;50.916;4.698;2023-01-16T01:19:28;5.30;99.90
22073;DHT22;11202;50.916;4.698;2023-01-16T01:22:16;5.40;99.90
22073;DHT22;11202;50.916;4.698;2023-01-16T01:24:47;5.30;99.90
22073;DHT22;11202;50.916;4.698;2023-01-16T01:27:13;5.30;99.90
22073;DHT22;11202;50.916;4.698;2023-01-16T01:29:38;5.30;99.90
22073;DHT22;11202;50.916;4.698;2023-01-16T01:32:05;5.30;99.90
22073;DHT22;11202;50.916;4.698;2023-01-16T01:34:32;5.40;99.90
22073;DHT22;11202;50.916;4.698;2023-01-16T01:37:03;5.60;99.90
22073;DHT22;11202;50.916;4.698;2023-01-16T01:39:32;5.60;99.90
22073;DHT22;11202;50.916;4.698;2023-01-16T01:41:58;5.70;99.90
22073;DHT22;11202;50.916;4.698;2023-01-16T01:47:21;5.80;99.90
22073;DHT22;11202;50.916;4.698;2023-01-16T01:49:49;5.80;99.90
22073;DHT22;11202;50.916;4.698;2023-01-16T01:52:18;5.90;99.90
22073;DHT22;11202;50.916;4.698;2023-01-16T01:54:49;6.00;99.90
22073;DHT22;11202;50.916;4.698;2023-01-16T03:49:40;6.70;99.90
22073;DHT22;11202;50.916;4.698;2023-01-16T04:15:27;6.90;99.90
22073;DHT22;11202;50.916;4.698;2023-01-16T04:28:15;6.90;99.90
22073;DHT22;11202;50.916;4.698;2023-01-16T04:33:17;6.90;99.90
22073;DHT22;11202;50.916;4.698;2023-01-16T04:35:43;7.00;99.90
22073;DHT22;11202;50.916;4.698;2023-01-16T04:40:44;6.90;99.90
22073;DHT22;11202;50.916;4.698;2023-01-16T04:43:14;6.80;99.90
22073;DHT22;11202;50.916;4.698;2023-01-16T04:48:15;6.80;99.90
22073;DHT22;11202;50.916;4.698;2023-01-16T04:50:42;6.70;99.90
22073;DHT22;11202;50.916;4.698;2023-01-16T04:53:08;6.70;99.90
22073;DHT22;11202;50.916;4.698;2023-01-16T04:55:34;6.70;99.90
22073;DHT22;11202;50.916;4.698;2023-01-16T04:58:00;6.60;99.90
22073;DHT22;11202;50.916;4.698;2023-01-16T05:00:25;6.70;99.90
22073;DHT22;11202;50.916;4.698;2023-01-16T05:05:27;6.60;99.90
22073;DHT22;11202;50.916;4.698;2023-01-16T05:07:53;6.50;99.90
22073;DHT22;11202;50.916;4.698;2023-01-16T05:10:37;6.60;99.90
22073;DHT22;11202;50.916;4.698;2023-01-16T05:13:03;6.50;99.90
22073;DHT22;11202;50.916;4.698;2023-01-16T05:15:29;6.40;99.90
22073;DHT22;11202;50.916;4.698;2023-01-16T05:17:55;6.40;99.90
22073;DHT22;11202;50.916;4.698;2023-01-16T05:20:21;6.30;99.90
22073;DHT22;11202;50.916;4.698;2023-01-16T05:22:47;6.20;99.90
22073;DHT22;11202;50.916;4.698;2023-01-16T05:25:15;6.30;99.90
22073;DHT22;11202;50.916;4.698;2023-01-16T05:27:42;6.30;99.90
22073;DHT22;11202;50.916;4.698;2023-01-16T05:30:10;6.20;99.90
22073;DHT22;11202;50.916;4.698;2023-01-16T05:32:36;6.20;99.90
22073;DHT22;11202;50.916;4.698;2023-01-16T05:35:02;6.10;99.90
22073;DHT22;11202;50.916;4.698;2023-01-16T05:37:31;6.10;99.90
22073;DHT22;11202;50.916;4.698;2023-01-16T05:39:59;6.00;99.90
22073;DHT22;11202;50.916;4.698;2023-01-16T05:42:25;6.00;99.90
22073;DHT22;11202;50.916;4.698;2023-01-16T05:44:51;6.10;99.90
22073;DHT22;11202;50.916;4.698;2023-01-16T05:47:18;6.10;99.90
22073;DHT22;11202;50.916;4.698;2023-01-16T05:49:47;6.00;99.90
22073;DHT22;11202;50.916;4.698;2023-01-16T05:52:16;6.00;99.90
22073;DHT22;11202;50.916;4.698;2023-01-16T05:54:44;5.90;99.90
22073;DHT22;11202;50.916;4.698;2023-01-16T05:57:10;5.90;99.90
22073;DHT22;11202;50.916;4.698;2023-01-16T05:59:36;5.90;99.90
22073;DHT22;11202;50.916;4.698;2023-01-16T06:02:01;5.90;99.90
22073;DHT22;11202;50.916;4.698;2023-01-16T06:04:27;5.90;99.90
22073;DHT22;11202;50.916;4.698;2023-01-16T06:06:53;5.90;99.90
22073;DHT22;11202;50.916;4.698;2023-01-16T06:09:19;5.90;99.90
22073;DHT22;11202;50.916;4.698;2023-01-16T06:11:45;5.90;99.90
22073;DHT22;11202;50.916;4.698;2023-01-16T06:14:12;5.80;99.90
22073;DHT22;11202;50.916;4.698;2023-01-16T06:16:38;5.90;99.90
22073;DHT22;11202;50.916;4.698;2023-01-16T06:19:07;5.80;99.90
22073;DHT22;11202;50.916;4.698;2023-01-16T06:21:33;5.80;99.90
22073;DHT22;11202;50.916;4.698;2023-01-16T06:23:58;5.80;99.90
22073;DHT22;11202;50.916;4.698;2023-01-16T06:26:27;5.70;99.90
22073;DHT22;11202;50.916;4.698;2023-01-16T06:28:53;5.70;99.90
22073;DHT22;11202;50.916;4.698;2023-01-16T06:31:21;5.80;99.90
22073;DHT22;11202;50.916;4.698;2023-01-16T06:33:47;5.80;99.90
22073;DHT22;11202;50.916;4.698;2023-01-16T06:36:14;5.80;99.90
22073;DHT22;11202;50.916;4.698;2023-01-16T06:38:50;5.80;99.90
22073;DHT22;11202;50.916;4.698;2023-01-16T06:41:16;5.80;99.90
22073;DHT22;11202;50.916;4.698;2023-01-16T06:43:42;5.70;99.90
22073;DHT22;11202;50.916;4.698;2023-01-16T06:46:10;5.80;99.90
22073;DHT22;11202;50.916;4.698;2023-01-16T06:48:36;5.70;99.90
22073;DHT22;11202;50.916;4.698;2023-01-16T06:51:23;5.70;99.90
22073;DHT22;11202;50.916;4.698;2023-01-16T06:53:49;5.80;99.90
22073;DHT22;11202;50.916;4.698;2023-01-16T06:56:15;5.80;99.90
22073;DHT22;11202;50.916;4.698;2023-01-16T06:58:42;5.80;99.90
22073;DHT22;11202;50.916;4.698;2023-01-16T07:01:09;5.70;99.90
22073;DHT22;11202;50.916;4.698;2023-01-16T07:03:35;5.70;99.90
22073;DHT22;11202;50.916;4.698;2023-01-16T07:06:04;5.80;99.90
22073;DHT22;11202;50.916;4.698;2023-01-16T07:08:30;5.70;99.90
22073;DHT22;11202;50.916;4.698;2023-01-16T07:11:02;5.70;99.90
22073;DHT22;11202;50.916;4.698;2023-01-16T07:13:28;5.60;99.90
22073;DHT22;11202;50.916;4.698;2023-01-16T07:15:54;5.60;99.90
22073;DHT22;11202;50.916;4.698;2023-01-16T07:18:39;5.60;99.90
22073;DHT22;11202;50.916;4.698;2023-01-16T07:21:26;5.60;99.90
22073;DHT22;11202;50.916;4.698;2023-01-16T07:24:14;5.50;99.90
22073;DHT22;11202;50.916;4.698;2023-01-16T07:26:43;5.50;99.90
22073;DHT22;11202;50.916;4.698;2023-01-16T07:29:10;5.60;99.90
22073;DHT22;11202;50.916;4.698;2023-01-16T07:31:35;5.60;99.90
22073;DHT22;11202;50.916;4.698;2023-01-16T07:34:01;5.50;99.90
22073;DHT22;11202;50.916;4.698;2023-01-16T07:36:27;5.50;99.90
22073;DHT22;11202;50.916;4.698;2023-01-16T07:38:53;5.40;99.90
22073;DHT22;11202;50.916;4.698;2023-01-16T07:41:18;5.40;99.90
22073;DHT22;11202;50.916;4.698;2023-01-16T07:43:47;5.40;99.90
22073;DHT22;11202;50.916;4.698;2023-01-16T07:46:16;5.30;99.90
22073;DHT22;11202;50.916;4.698;2023-01-16T07:48:41;5.30;99.90
22073;DHT22;11202;50.916;4.698;2023-01-16T07:51:07;5.30;99.90
22073;DHT22;11202;50.916;4.698;2023-01-16T07:53:33;5.30;99.90
22073;DHT22;11202;50.916;4.698;2023-01-16T07:56:00;5.30;99.90
22073;DHT22;11202;50.916;4.698;2023-01-16T07:58:27;5.30;99.90
22073;DHT22;11202;50.916;4.698;2023-01-16T08:00:55;5.30;99.90
22073;DHT22;11202;50.916;4.698;2023-01-16T08:03:22;5.20;99.90
22073;DHT22;11202;50.916;4.698;2023-01-16T08:05:49;5.30;99.90
22073;DHT22;11202;50.916;4.698;2023-01-16T08:08:17;5.30;99.90
22073;DHT22;11202;50.916;4.698;2023-01-16T08:10:44;5.40;99.90
22073;DHT22;11202;50.916;4.698;2023-01-16T08:13:09;5.40;99.90
22073;DHT22;11202;50.916;4.698;2023-01-16T08:15:35;5.40;99.90
22073;DHT22;11202;50.916;4.698;2023-01-16T08:18:01;5.40;99.90
22073;DHT22;11202;50.916;4.698;2023-01-16T08:20:26;5.50;99.90
22073;DHT22;11202;50.916;4.698;2023-01-16T08:22:53;5.50;99.90
22073;DHT22;11202;50.916;4.698;2023-01-16T08:25:22;5.40;99.90
22073;DHT22;11202;50.916;4.698;2023-01-16T08:27:48;5.40;99.90
22073;DHT22;11202;50.916;4.698;2023-01-16T08:30:15;5.50;99.90
22073;DHT22;11202;50.916;4.698;2023-01-16T08:32:41;5.60;99.90
22073;DHT22;11202;50.916;4.698;2023-01-16T08:35:08;5.60;99.90
22073;DHT22;11202;50.916;4.698;2023-01-16T08:37:35;5.60;99.90
22073;DHT22;11202;50.916;4.698;2023-01-16T08:40:01;5.70;99.90
22073;DHT22;11202;50.916;4.698;2023-01-16T08:42:29;5.60;99.90
22073;DHT22;11202;50.916;4.698;2023-01-16T08:45:16;5.60;99.90
22073;DHT22;11202;50.916;4.698;2023-01-16T08:48:01;5.70;99.90
22073;DHT22;11202;50.916;4.698;2023-01-16T08:50:46;5.80;99.90
22073;DHT22;11202;50.916;4.698;2023-01-16T08:53:30;5.80;99.90
22073;DHT22;11202;50.916;4.698;2023-01-16T08:55:56;5.80;99.90
22073;DHT22;11202;50.916;4.698;2023-01-16T08:58:25;5.80;99.90
22073;DHT22;11202;50.916;4.698;2023-01-16T09:00:51;5.90;99.90
22073;DHT22;11202;50.916;4.698;2023-01-16T09:03:16;6.00;99.90
22073;DHT22;11202;50.916;4.698;2023-01-16T09:05:43;6.00;99.90
22073;DHT22;11202;50.916;4.698;2023-01-16T09:08:09;6.20;99.90
22073;DHT22;11202;50.916;4.698;2023-01-16T09:10:35;6.10;99.90
22073;DHT22;11202;50.916;4.698;2023-01-16T09:13:01;6.20;99.90
22073;DHT22;11202;50.916;4.698;2023-01-16T09:15:46;6.10;99.90
22073;DHT22;11202;50.916;4.698;2023-01-16T09:18:11;6.10;99.90
22073;DHT22;11202;50.916;4.698;2023-01-16T09:20:37;6.20;99.90
22073;DHT22;11202;50.916;4.698;2023-01-16T09:23:03;6.50;99.90
22073;DHT22;11202;50.916;4.698;2023-01-16T09:25:31;6.50;99.90
22073;DHT22;11202;50.916;4.698;2023-01-16T09:27:58;6.70;99.90
22073;DHT22;11202;50.916;4.698;2023-01-16T09:30:26;6.90;99.90
22073;DHT22;11202;50.916;4.698;2023-01-16T09:32:52;6.90;99.90
22073;DHT22;11202;50.916;4.698;2023-01-16T09:35:18;7.00;99.90
22073;DHT22;11202;50.916;4.698;2023-01-16T09:40:21;7.30;99.90
22073;DHT22;11202;50.916;4.698;2023-01-16T09:42:57;7.70;99.90
22073;DHT22;11202;50.916;4.698;2023-01-16T09:45:43;7.60;99.90
22073;DHT22;11202;50.916;4.698;2023-01-16T09:48:15;7.30;99.90
22073;DHT22;11202;50.916;4.698;2023-01-16T09:50:52;7.10;99.90
22073;DHT22;11202;50.916;4.698;2023-01-16T10:14:10;7.10;99.90
22073;DHT22;11202;50.916;4.698;2023-01-16T10:27:52;7.20;99.90
22073;DHT22;11202;50.916;4.698;2023-01-16T10:30:30;7.40;99.90
22073;DHT22;11202;50.916;4.698;2023-01-16T10:35:30;8.00;99.90
22073;DHT22;11202;50.916;4.698;2023-01-16T10:38:06;8.20;99.90
22073;DHT22;11202;50.916;4.698;2023-01-16T10:40:39;8.10;99.90
22073;DHT22;11202;50.916;4.698;2023-01-16T10:43:16;8.10;99.90
22073;DHT22;11202;50.916;4.698;2023-01-16T10:46:16;7.90;99.90
22073;DHT22;11202;50.916;4.698;2023-01-16T10:49:02;7.80;99.90
22073;DHT22;11202;50.916;4.698;2023-01-16T10:51:46;7.70;99.90
22073;DHT22;11202;50.916;4.698;2023-01-16T10:54:12;7.70;99.90
22073;DHT22;11202;50.916;4.698;2023-01-16T10:56:37;7.70;99.90
22073;DHT22;11202;50.916;4.698;2023-01-16T10:59:23;7.70;99.90
22073;DHT22;11202;50.916;4.698;2023-01-16T11:01:50;7.80;99.90
22073;DHT22;11202;50.916;4.698;2023-01-16T11:04:18;7.80;99.90
22073;DHT22;11202;50.916;4.698;2023-01-16T11:06:45;7.80;99.90
22073;DHT22;11202;50.916;4.698;2023-01-16T11:11:50;8.10;99.90
22073;DHT22;11202;50.916;4.698;2023-01-16T11:14:41;8.00;99.90
22073;DHT22;11202;50.916;4.698;2023-01-16T11:17:32;8.10;99.90
22073;DHT22;11202;50.916;4.698;2023-01-16T11:27:45;7.70;99.90
22073;DHT22;11202;50.916;4.698;2023-01-16T11:30:20;7.40;99.90
22073;DHT22;11202;50.916;4.698;2023-01-16T11:38:01;7.50;99.90
22073;DHT22;11202;50.916;4.698;2023-01-16T11:40:31;7.50;99.90
22073;DHT22;11202;50.916;4.698;2023-01-16T11:43:08;7.60;99.90
22073;DHT22;11202;50.916;4.698;2023-01-16T11:45:56;7.60;99.90
22073;DHT22;11202;50.916;4.698;2023-01-16T11:51:05;7.60;99.90
22073;DHT22;11202;50.916;4.698;2023-01-16T11:53:34;7.70;99.90
22073;DHT22;11202;50.916;4.698;2023-01-16T11:59:38;7.90;99.90
22073;DHT22;11202;50.916;4.698;2023-01-16T12:11:02;7.50;99.90
22073;DHT22;11202;50.916;4.698;2023-01-16T12:17:03;7.60;99.90
22073;DHT22;11202;50.916;4.698;2023-01-16T12:36:53;7.40;99.90
22073;DHT22;11202;50.916;4.698;2023-01-16T12:59:30;7.20;99.90
22073;DHT22;11202;50.916;4.698;2023-01-16T13:02:02;7.20;99.90
22073;DHT22;11202;50.916;4.698;2023-01-16T13:04:39;7.10;99.90
22073;DHT22;11202;50.916;4.698;2023-01-16T13:07:15;7.20;99.90
22073;DHT22;11202;50.916;4.698;2023-01-16T13:10:05;7.20;99.90
22073;DHT22;11202;50.916;4.698;2023-01-16T13:12:57;7.30;99.90
22073;DHT22;11202;50.916;4.698;2023-01-16T13:15:46;7.40;99.90
22073;DHT22;11202;50.916;4.698;2023-01-16T13:18:26;7.30;99.90
22073;DHT22;11202;50.916;4.698;2023-01-16T13:20:57;7.20;99.90
22073;DHT22;11202;50.916;4.698;2023-01-16T13:23:38;7.20;99.90
22073;DHT22;11202;50.916;4.698;2023-01-16T13:26:09;7.30;99.90
22073;DHT22;11202;50.916;4.698;2023-01-16T13:34:18;7.30;99.90
22073;DHT22;11202;50.916;4.698;2023-01-16T13:42:14;7.00;99.90
22073;DHT22;11202;50.916;4.698;2023-01-16T13:44:48;6.90;99.90
22073;DHT22;11202;50.916;4.698;2023-01-16T13:47:38;6.90;99.90
22073;DHT22;11202;50.916;4.698;2023-01-16T13:52:34;7.00;99.90
22073;DHT22;11202;50.916;4.698;2023-01-16T13:55:03;7.00;99.90
22073;DHT22;11202;50.916;4.698;2023-01-16T13:57:32;7.10;99.90
22073;DHT22;11202;50.916;4.698;2023-01-16T14:00:00;7.10;99.90
22073;DHT22;11202;50.916;4.698;2023-01-16T14:02:40;7.10;99.90
22073;DHT22;11202;50.916;4.698;2023-01-16T14:05:42;7.00;99.90
22073;DHT22;11202;50.916;4.698;2023-01-16T14:08:28;7.10;99.90
22073;DHT22;11202;50.916;4.698;2023-01-16T14:11:32;7.20;99.90
22073;DHT22;11202;50.916;4.698;2023-01-16T14:17:00;7.50;99.90
22073;DHT22;11202;50.916;4.698;2023-01-16T14:19:40;7.50;99.90
22073;DHT22;11202;50.916;4.698;2023-01-16T14:22:17;7.40;99.90
22073;DHT22;11202;50.916;4.698;2023-01-16T14:24:46;7.20;99.90
22073;DHT22;11202;50.916;4.698;2023-01-16T14:27:24;7.40;99.90
22073;DHT22;11202;50.916;4.698;2023-01-16T14:29:54;7.30;99.90
22073;DHT22;11202;50.916;4.698;2023-01-16T14:32:27;7.30;99.90
22073;DHT22;11202;50.916;4.698;2023-01-16T14:37:38;7.30;99.90
22073;DHT22;11202;50.916;4.698;2023-01-16T14:42:39;7.20;99.90
22073;DHT22;11202;50.916;4.698;2023-01-16T14:45:26;7.10;99.90
22073;DHT22;11202;50.916;4.698;2023-01-16T14:54:30;7.30;99.90
22073;DHT22;11202;50.916;4.698;2023-01-16T14:57:16;7.30;99.90
22073;DHT22;11202;50.916;4.698;2023-01-16T14:59:58;7.10;99.90
22073;DHT22;11202;50.916;4.698;2023-01-16T15:02:40;7.00;99.90
22073;DHT22;11202;50.916;4.698;2023-01-16T15:07:57;6.90;99.90
22073;DHT22;11202;50.916;4.698;2023-01-16T15:10:35;6.80;99.90
22073;DHT22;11202;50.916;4.698;2023-01-16T15:13:28;6.60;99.90
22073;DHT22;11202;50.916;4.698;2023-01-16T15:16:17;6.50;99.90
22073;DHT22;11202;50.916;4.698;2023-01-16T15:21:48;6.40;99.90
22073;DHT22;11202;50.916;4.698;2023-01-16T15:24:24;6.40;99.90
22073;DHT22;11202;50.916;4.698;2023-01-16T15:27:13;6.50;99.90
22073;DHT22;11202;50.916;4.698;2023-01-16T15:32:21;6.50;99.90
22073;DHT22;11202;50.916;4.698;2023-01-16T15:35:15;6.50;99.90
22073;DHT22;11202;50.916;4.698;2023-01-16T15:37:54;6.40;99.90
22073;DHT22;11202;50.916;4.698;2023-01-16T15:40:30;6.30;99.90
22073;DHT22;11202;50.916;4.698;2023-01-16T15:42:57;6.10;99.90
22073;DHT22;11202;50.916;4.698;2023-01-16T15:46:02;6.10;99.90
22073;DHT22;11202;50.916;4.698;2023-01-16T15:48:54;6.20;99.90
22073;DHT22;11202;50.916;4.698;2023-01-16T15:51:22;6.20;99.90
22073;DHT22;11202;50.916;4.698;2023-01-16T15:53:49;6.20;99.90
22073;DHT22;11202;50.916;4.698;2023-01-16T15:56:33;6.20;99.90
22073;DHT22;11202;50.916;4.698;2023-01-16T15:59:00;6.20;99.90
22073;DHT22;11202;50.916;4.698;2023-01-16T16:01:31;6.10;99.90
22073;DHT22;11202;50.916;4.698;2023-01-16T16:03:58;6.10;99.90
22073;DHT22;11202;50.916;4.698;2023-01-16T16:06:26;6.00;99.90
22073;DHT22;11202;50.916;4.698;2023-01-16T16:08:55;5.90;99.90
22073;DHT22;11202;50.916;4.698;2023-01-16T16:11:30;5.70;99.90
22073;DHT22;11202;50.916;4.698;2023-01-16T16:14:30;5.50;99.90
22073;DHT22;11202;50.916;4.698;2023-01-16T16:23:22;5.10;99.90
22073;DHT22;11202;50.916;4.698;2023-01-16T16:25:50;4.90;99.90
22073;DHT22;11202;50.916;4.698;2023-01-16T16:36:27;4.70;99.90
22073;DHT22;11202;50.916;4.698;2023-01-16T16:38:55;4.80;99.90
22073;DHT22;11202;50.916;4.698;2023-01-16T16:44:24;4.90;99.90
22073;DHT22;11202;50.916;4.698;2023-01-16T16:46:56;4.90;99.90
22073;DHT22;11202;50.916;4.698;2023-01-16T16:51:48;4.90;99.90
22073;DHT22;11202;50.916;4.698;2023-01-16T16:54:15;4.90;99.90
22073;DHT22;11202;50.916;4.698;2023-01-16T16:56:58;4.80;99.90
22073;DHT22;11202;50.916;4.698;2023-01-16T16:59:26;4.80;99.90
22073;DHT22;11202;50.916;4.698;2023-01-16T17:01:57;4.80;99.90
22073;DHT22;11202;50.916;4.698;2023-01-16T17:04:29;4.80;99.90
22073;DHT22;11202;50.916;4.698;2023-01-16T17:06:55;4.80;99.90
22073;DHT22;11202;50.916;4.698;2023-01-16T17:09:25;4.80;99.90
22073;DHT22;11202;50.916;4.698;2023-01-16T17:11:51;4.80;99.90
22073;DHT22;11202;50.916;4.698;2023-01-16T17:14:17;4.70;99.90
22073;DHT22;11202;50.916;4.698;2023-01-16T17:16:42;4.80;99.90
22073;DHT22;11202;50.916;4.698;2023-01-16T17:19:24;4.80;99.90
22073;DHT22;11202;50.916;4.698;2023-01-16T17:21:52;4.80;99.90
22073;DHT22;11202;50.916;4.698;2023-01-16T17:24:19;4.80;99.90
22073;DHT22;11202;50.916;4.698;2023-01-16T17:26:45;4.80;99.90
22073;DHT22;11202;50.916;4.698;2023-01-16T17:29:12;4.80;99.90
22073;DHT22;11202;50.916;4.698;2023-01-16T17:31:39;4.90;99.90
22073;DHT22;11202;50.916;4.698;2023-01-16T17:34:12;4.90;99.90
22073;DHT22;11202;50.916;4.698;2023-01-16T17:36:39;5.00;99.90
22073;DHT22;11202;50.916;4.698;2023-01-16T17:39:05;5.00;99.90
22073;DHT22;11202;50.916;4.698;2023-01-16T17:41:34;5.00;99.90
22073;DHT22;11202;50.916;4.698;2023-01-16T17:44:26;5.00;99.90
22073;DHT22;11202;50.916;4.698;2023-01-16T17:47:10;5.00;99.90
22073;DHT22;11202;50.916;4.698;2023-01-16T17:49:39;5.00;99.90
22073;DHT22;11202;50.916;4.698;2023-01-16T17:52:39;5.10;99.90
22073;DHT22;11202;50.916;4.698;2023-01-16T17:55:05;5.10;99.90
22073;DHT22;11202;50.916;4.698;2023-01-16T17:57:49;5.10;99.90
22073;DHT22;11202;50.916;4.698;2023-01-16T18:00:15;5.10;99.90
22073;DHT22;11202;50.916;4.698;2023-01-16T18:02:41;5.20;99.90
22073;DHT22;11202;50.916;4.698;2023-01-16T18:05:07;5.20;99.90
22073;DHT22;11202;50.916;4.698;2023-01-16T18:07:35;5.20;99.90
22073;DHT22;11202;50.916;4.698;2023-01-16T18:10:01;5.10;99.90
22073;DHT22;11202;50.916;4.698;2023-01-16T18:12:27;5.10;99.90
22073;DHT22;11202;50.916;4.698;2023-01-16T18:15:11;5.00;99.90
22073;DHT22;11202;50.916;4.698;2023-01-16T18:17:55;4.90;99.90
22073;DHT22;11202;50.916;4.698;2023-01-16T18:20:22;4.70;99.90
22073;DHT22;11202;50.916;4.698;2023-01-16T18:22:48;4.70;99.90
22073;DHT22;11202;50.916;4.698;2023-01-16T18:25:14;4.70;99.90
22073;DHT22;11202;50.916;4.698;2023-01-16T18:27:39;4.60;99.90
22073;DHT22;11202;50.916;4.698;2023-01-16T18:30:06;4.50;99.90
22073;DHT22;11202;50.916;4.698;2023-01-16T18:32:32;4.40;99.90
22073;DHT22;11202;50.916;4.698;2023-01-16T18:35:09;4.50;99.90
22073;DHT22;11202;50.916;4.698;2023-01-16T18:37:42;4.40;99.90
22073;DHT22;11202;50.916;4.698;2023-01-16T18:40:27;4.40;99.90
22073;DHT22;11202;50.916;4.698;2023-01-16T18:43:11;4.40;99.90
22073;DHT22;11202;50.916;4.698;2023-01-16T18:45:55;4.40;99.90
22073;DHT22;11202;50.916;4.698;2023-01-16T18:48:42;4.40;99.90
22073;DHT22;11202;50.916;4.698;2023-01-16T18:51:26;4.30;99.90
22073;DHT22;11202;50.916;4.698;2023-01-16T18:54:14;4.20;99.90
22073;DHT22;11202;50.916;4.698;2023-01-16T18:56:59;4.20;99.90
22073;DHT22;11202;50.916;4.698;2023-01-16T18:59:43;4.00;99.90
22073;DHT22;11202;50.916;4.698;2023-01-16T19:05:09;3.80;99.90
22073;DHT22;11202;50.916;4.698;2023-01-16T19:07:36;3.80;99.90
22073;DHT22;11202;50.916;4.698;2023-01-16T19:10:09;3.90;99.90
22073;DHT22;11202;50.916;4.698;2023-01-16T19:12:40;3.90;99.90
22073;DHT22;11202;50.916;4.698;2023-01-16T19:15:07;3.90;99.90
22073;DHT22;11202;50.916;4.698;2023-01-16T19:17:33;4.00;99.90
22073;DHT22;11202;50.916;4.698;2023-01-16T19:19:59;4.00;99.90
22073;DHT22;11202;50.916;4.698;2023-01-16T19:22:25;4.10;99.90
22073;DHT22;11202;50.916;4.698;2023-01-16T19:24:50;4.10;99.90
22073;DHT22;11202;50.916;4.698;2023-01-16T19:27:17;4.10;99.90
22073;DHT22;11202;50.916;4.698;2023-01-16T19:29:46;4.10;99.90
22073;DHT22;11202;50.916;4.698;2023-01-16T19:32:11;4.10;99.90
22073;DHT22;11202;50.916;4.698;2023-01-16T19:34:37;4.10;99.90
22073;DHT22;11202;50.916;4.698;2023-01-16T19:37:04;4.10;99.90
22073;DHT22;11202;50.916;4.698;2023-01-16T19:39:33;4.10;99.90
22073;DHT22;11202;50.916;4.698;2023-01-16T19:42:00;4.00;99.90
22073;DHT22;11202;50.916;4.698;2023-01-16T19:44:44;4.10;99.90
22073;DHT22;11202;50.916;4.698;2023-01-16T19:47:29;4.20;99.90
22073;DHT22;11202;50.916;4.698;2023-01-16T19:49:57;4.30;99.90
22073;DHT22;11202;50.916;4.698;2023-01-16T19:52:22;4.40;99.90
22073;DHT22;11202;50.916;4.698;2023-01-16T19:54:48;4.40;99.90
22073;DHT22;11202;50.916;4.698;2023-01-16T19:57:14;4.40;99.90
22073;DHT22;11202;50.916;4.698;2023-01-16T19:59:40;4.40;99.90
22073;DHT22;11202;50.916;4.698;2023-01-16T20:02:07;4.40;99.90
22073;DHT22;11202;50.916;4.698;2023-01-16T20:04:37;4.40;99.90
22073;DHT22;11202;50.916;4.698;2023-01-16T20:07:05;4.50;99.90
22073;DHT22;11202;50.916;4.698;2023-01-16T20:09:32;4.40;99.90
22073;DHT22;11202;50.916;4.698;2023-01-16T20:11:58;4.40;99.90
22073;DHT22;11202;50.916;4.698;2023-01-16T20:14:43;4.40;99.90
22073;DHT22;11202;50.916;4.698;2023-01-16T20:17:08;4.40;99.90
22073;DHT22;11202;50.916;4.698;2023-01-16T20:19:38;4.50;99.90
22073;DHT22;11202;50.916;4.698;2023-01-16T20:22:06;4.50;99.90
22073;DHT22;11202;50.916;4.698;2023-01-16T20:24:32;4.60;99.90
22073;DHT22;11202;50.916;4.698;2023-01-16T20:26:59;4.50;99.90
22073;DHT22;11202;50.916;4.698;2023-01-16T20:29:28;4.40;99.90
22073;DHT22;11202;50.916;4.698;2023-01-16T20:31:54;4.20;99.90
22073;DHT22;11202;50.916;4.698;2023-01-16T20:34:20;4.10;99.90
22073;DHT22;11202;50.916;4.698;2023-01-16T20:36:48;4.00;99.90
22073;DHT22;11202;50.916;4.698;2023-01-16T20:39:16;4.10;99.90
22073;DHT22;11202;50.916;4.698;2023-01-16T20:41:43;4.10;99.90
22073;DHT22;11202;50.916;4.698;2023-01-16T20:44:27;4.10;99.90
22073;DHT22;11202;50.916;4.698;2023-01-16T20:47:13;4.10;99.90
22073;DHT22;11202;50.916;4.698;2023-01-16T20:49:40;4.10;99.90
22073;DHT22;11202;50.916;4.698;2023-01-16T20:52:07;4.10;99.90
22073;DHT22;11202;50.916;4.698;2023-01-16T20:54:34;4.10;99.90
22073;DHT22;11202;50.916;4.698;2023-01-16T20:57:01;4.10;99.90
22073;DHT22;11202;50.916;4.698;2023-01-16T20:59:27;4.10;99.90
22073;DHT22;11202;50.916;4.698;2023-01-16T21:01:54;4.20;99.90
22073;DHT22;11202;50.916;4.698;2023-01-16T21:04:24;4.30;99.90
22073;DHT22;11202;50.916;4.698;2023-01-16T21:06:50;4.20;99.90
22073;DHT22;11202;50.916;4.698;2023-01-16T21:09:19;4.20;99.90
22073;DHT22;11202;50.916;4.698;2023-01-16T21:11:47;4.30;99.90
22073;DHT22;11202;50.916;4.698;2023-01-16T21:14:32;4.20;99.90
22073;DHT22;11202;50.916;4.698;2023-01-16T21:17:00;4.00;99.90
22073;DHT22;11202;50.916;4.698;2023-01-16T21:19:45;4.00;99.90
22073;DHT22;11202;50.916;4.698;2023-01-16T21:22:34;3.90;99.90
22073;DHT22;11202;50.916;4.698;2023-01-16T21:25:03;4.00;99.90
22073;DHT22;11202;50.916;4.698;2023-01-16T21:27:32;3.90;99.90
22073;DHT22;11202;50.916;4.698;2023-01-16T21:30:01;3.90;99.90
22073;DHT22;11202;50.916;4.698;2023-01-16T21:32:28;4.00;99.90
22073;DHT22;11202;50.916;4.698;2023-01-16T21:34:56;4.00;99.90
22073;DHT22;11202;50.916;4.698;2023-01-16T21:37:24;4.00;99.90